createdAt,value
2023-04-06T00:01:59.268Z,98782.66
2023-04-06T00:04:27.559Z,98781.72
2023-04-06T00:06:55.732Z,98778.09
2023-04-06T00:09:23.829Z,98776.13
2023-04-06T00:11:52.115Z,98773.44
2023-04-06T00:14:20.404Z,98772.28
2023-04-06T00:16:50.983Z,98767.38
2023-04-06T00:19:22.985Z,98774.84
2023-04-06T00:21:51.497Z,98766.66
2023-04-06T00:24:19.636Z,98762.75
2023-04-06T00:26:48.203Z,98763.16
2023-04-06T00:29:16.370Z,98758.81
2023-04-06T00:31:44.523Z,98761.97
2023-04-06T00:34:12.639Z,98768.84
2023-04-06T00:36:42.096Z,98762.34
2023-04-06T00:39:10.511Z,98760.31
2023-04-06T00:41:41.398Z,98756.78
2023-04-06T00:44:09.513Z,98752.94
2023-04-06T00:46:37.856Z,98750.81
2023-04-06T00:49:06.389Z,98754.31
2023-04-06T00:51:34.778Z,98741.94
2023-04-06T00:54:04.608Z,98747.91
2023-04-06T00:56:34.276Z,98748.94
2023-04-06T00:59:02.625Z,98747.19
2023-04-06T01:01:31.060Z,98749.44
2023-04-06T01:04:03.934Z,98748.63
2023-04-06T01:06:37.888Z,98747.34
2023-04-06T01:09:07.672Z,98745.03
2023-04-06T01:11:37.465Z,98742.25
2023-04-06T01:14:08.415Z,98732.44
2023-04-06T01:16:48.744Z,98745.00
2023-04-06T01:19:21.591Z,98740.00
2023-04-06T01:21:54.240Z,98745.66
2023-04-06T01:24:23.742Z,98743.00
2023-04-06T01:27:05.211Z,98730.22
2023-04-06T01:29:51.979Z,98736.91
2023-04-06T01:32:49.394Z,98730.56
2023-04-06T01:35:22.962Z,98731.88
2023-04-06T01:38:02.185Z,98716.94
2023-04-06T01:40:35.560Z,98715.75
2023-04-06T01:43:04.026Z,98726.28
2023-04-06T01:45:38.186Z,98724.97
2023-04-06T01:48:16.042Z,98719.00
2023-04-06T01:50:44.225Z,98719.91
2023-04-06T01:53:16.536Z,98728.84
2023-04-06T01:55:48.089Z,98726.69
2023-04-06T01:58:33.304Z,98723.72
2023-04-06T02:01:02.562Z,98719.34
2023-04-06T02:03:35.988Z,98716.22
2023-04-06T02:06:09.184Z,98710.53
2023-04-06T02:08:41.188Z,98718.31
2023-04-06T02:11:10.784Z,98710.28
2023-04-06T02:13:44.702Z,98711.25
2023-04-06T02:16:13.427Z,98716.09
2023-04-06T02:18:44.970Z,98712.56
2023-04-06T02:21:13.734Z,98709.56
2023-04-06T02:23:42.145Z,98711.16
2023-04-06T02:26:11.681Z,98709.44
2023-04-06T02:28:40.817Z,98710.38
2023-04-06T02:31:09.425Z,98707.25
2023-04-06T02:33:38.129Z,98703.50
2023-04-06T02:36:07.197Z,98701.94
2023-04-06T02:38:35.529Z,98700.06
2023-04-06T02:41:04.638Z,98700.81
2023-04-06T02:43:34.650Z,98700.94
2023-04-06T02:46:07.841Z,98696.63
2023-04-06T02:48:39.668Z,98711.31
2023-04-06T02:51:08.065Z,98689.66
2023-04-06T02:53:39.240Z,98694.72
2023-04-06T02:56:08.101Z,98688.31
2023-04-06T02:58:48.141Z,98698.13
2023-04-06T03:01:16.511Z,98695.91
2023-04-06T03:03:45.136Z,98703.13
2023-04-06T03:06:20.535Z,98698.16
2023-04-06T03:08:54.755Z,98701.66
2023-04-06T03:11:23.177Z,98700.09
2023-04-06T03:13:54.807Z,98705.25
2023-04-06T03:16:23.125Z,98695.47
2023-04-06T03:18:52.173Z,98696.97
2023-04-06T03:21:21.177Z,98693.56
2023-04-06T03:23:54.089Z,98697.25
2023-04-06T03:26:23.164Z,98698.94
2023-04-06T03:28:53.149Z,98700.94
2023-04-06T03:31:26.474Z,98707.53
2023-04-06T03:34:00.128Z,98700.16
2023-04-06T03:36:32.525Z,98705.31
2023-04-06T03:39:01.695Z,98703.31
2023-04-06T03:41:32.771Z,98698.38
2023-04-06T03:44:09.708Z,98706.59
2023-04-06T03:46:40.570Z,98704.34
2023-04-06T03:49:09.882Z,98702.00
2023-04-06T03:51:38.310Z,98706.59
2023-04-06T03:54:06.476Z,98705.72
2023-04-06T03:56:34.642Z,98713.72
2023-04-06T03:59:05.474Z,98715.44
2023-04-06T04:01:33.757Z,98711.19
2023-04-06T04:04:04.482Z,98710.72
2023-04-06T04:06:33.284Z,98706.06
2023-04-06T04:09:01.449Z,98716.72
2023-04-06T04:11:30.112Z,98727.34
2023-04-06T04:14:01.090Z,98726.28
2023-04-06T04:16:29.272Z,98707.84
2023-04-06T04:18:59.180Z,98714.00
2023-04-06T04:21:30.003Z,98720.38
2023-04-06T04:23:58.460Z,98719.94
2023-04-06T04:26:26.840Z,98715.34
2023-04-06T04:28:55.895Z,98726.91
2023-04-06T04:31:24.353Z,98724.69
2023-04-06T04:33:57.390Z,98729.28
2023-04-06T04:36:32.132Z,98727.75
2023-04-06T04:39:03.682Z,98721.03
2023-04-06T04:41:36.446Z,98706.19
2023-04-06T04:44:09.291Z,98727.44
2023-04-06T04:46:37.534Z,98724.03
2023-04-06T04:49:06.743Z,98721.50
2023-04-06T04:51:37.429Z,98721.47
2023-04-06T04:54:11.656Z,98733.75
2023-04-06T04:56:41.521Z,98729.56
2023-04-06T04:59:30.807Z,98730.94
2023-04-06T05:02:05.434Z,98731.09
2023-04-06T05:04:52.046Z,98730.84
2023-04-06T05:07:25.851Z,98733.56
2023-04-06T05:09:56.585Z,98733.47
2023-04-06T05:12:28.894Z,98734.13
2023-04-06T05:15:08.221Z,98738.66
2023-04-06T05:17:36.440Z,98745.03
2023-04-06T05:20:05.374Z,98734.25
2023-04-06T05:22:40.354Z,98736.94
2023-04-06T05:25:11.726Z,98738.97
2023-04-06T05:27:41.530Z,98746.72
2023-04-06T05:30:19.978Z,98743.38
2023-04-06T05:32:50.006Z,98742.25
2023-04-06T05:35:19.202Z,98747.84
2023-04-06T05:37:53.085Z,98713.78
2023-04-06T05:40:25.501Z,98745.88
2023-04-06T05:42:53.727Z,98752.38
2023-04-06T05:45:22.546Z,98746.72
2023-04-06T05:47:55.917Z,98750.19
2023-04-06T05:50:27.491Z,98761.88
2023-04-06T05:52:57.097Z,98761.19
2023-04-06T05:55:29.756Z,98762.38
2023-04-06T05:58:10.035Z,98759.19
2023-04-06T06:00:38.314Z,98765.56
2023-04-06T06:03:09.633Z,98770.53
2023-04-06T06:05:38.849Z,98770.19
2023-04-06T06:08:13.742Z,98770.34
2023-04-06T06:10:44.403Z,98767.34
2023-04-06T06:13:15.527Z,98757.75
2023-04-06T06:15:44.136Z,98759.34
2023-04-06T06:18:12.286Z,98760.03
2023-04-06T06:20:40.790Z,98766.75
2023-04-06T06:23:08.962Z,98767.66
2023-04-06T06:25:39.115Z,98774.56
2023-04-06T06:28:10.077Z,98780.22
2023-04-06T06:30:38.332Z,98776.00
2023-04-06T06:33:06.912Z,98786.47
2023-04-06T06:35:35.325Z,98754.97
2023-04-06T06:38:05.527Z,98782.69
2023-04-06T06:40:35.190Z,98785.09
2023-04-06T06:43:04.795Z,98784.44
2023-04-06T06:45:47.592Z,98785.84
2023-04-06T06:48:16.208Z,98782.97
2023-04-06T06:50:44.417Z,98779.84
2023-04-06T06:53:14.205Z,98784.00
2023-04-06T06:55:45.087Z,98781.34
2023-04-06T06:58:14.580Z,98786.97
2023-04-06T07:00:42.865Z,98784.47
2023-04-06T07:03:11.174Z,98786.16
2023-04-06T07:05:41.400Z,98783.19
2023-04-06T07:08:09.744Z,98786.41
2023-04-06T07:10:37.935Z,98778.69
2023-04-06T07:13:06.557Z,98781.97
2023-04-06T07:15:36.212Z,98792.13
2023-04-06T07:18:04.587Z,98786.78
2023-04-06T07:20:32.780Z,98784.28
2023-04-06T07:23:00.960Z,98786.53
2023-04-06T07:25:29.592Z,98786.69
2023-04-06T07:27:57.753Z,98789.09
2023-04-06T07:30:27.408Z,98765.00
2023-04-06T07:33:00.083Z,98783.66
2023-04-06T07:35:31.574Z,98794.25
2023-04-06T07:37:59.927Z,98790.31
2023-04-06T07:40:28.169Z,98791.38
2023-04-06T07:42:58.185Z,98787.09
2023-04-06T07:45:27.048Z,98791.88
2023-04-06T07:47:55.945Z,98787.84
2023-04-06T07:50:27.940Z,98788.97
2023-04-06T07:52:58.717Z,98780.28
2023-04-06T07:55:26.935Z,98786.41
2023-04-06T07:57:55.077Z,98786.72
2023-04-06T08:00:23.721Z,98783.47
2023-04-06T08:02:52.095Z,98788.50
2023-04-06T08:05:20.603Z,98788.34
2023-04-06T08:07:50.337Z,98777.84
2023-04-06T08:10:18.618Z,98787.38
2023-04-06T08:12:46.871Z,98783.56
2023-04-06T08:15:15.152Z,98781.50
2023-04-06T08:17:43.303Z,98780.75
2023-04-06T08:20:11.912Z,98780.56
2023-04-06T08:22:40.901Z,98783.97
2023-04-06T08:25:10.614Z,98783.81
2023-04-06T08:27:38.888Z,98786.69
2023-04-06T08:30:07.596Z,98784.66
2023-04-06T08:32:35.814Z,98786.84
2023-04-06T08:35:04.164Z,98782.69
2023-04-06T08:37:32.355Z,98775.88
2023-04-06T08:40:00.959Z,98775.09
2023-04-06T08:42:33.851Z,98780.41
2023-04-06T08:45:02.564Z,98775.59
2023-04-06T08:47:30.814Z,98772.22
2023-04-06T08:50:00.417Z,98777.53
2023-04-06T08:52:28.865Z,98775.06
2023-04-06T08:54:57.033Z,98769.88
2023-04-06T08:57:25.864Z,98771.50
2023-04-06T08:59:56.281Z,98767.19
2023-04-06T09:02:25.452Z,98754.38
2023-04-06T09:04:55.414Z,98764.66
2023-04-06T09:07:24.910Z,98760.81
2023-04-06T09:09:55.358Z,98764.25
2023-04-06T09:12:27.713Z,98764.06
2023-04-06T09:14:57.769Z,98757.28
2023-04-06T09:17:26.631Z,98761.44
2023-04-06T09:19:55.131Z,98750.94
2023-04-06T09:22:23.591Z,98752.94
2023-04-06T09:24:52.502Z,98756.81
2023-04-06T09:27:31.778Z,98747.97
2023-04-06T09:30:07.127Z,98753.38
2023-04-06T09:32:46.625Z,98758.84
2023-04-06T09:35:15.467Z,98749.19
2023-04-06T09:37:43.665Z,98749.31
2023-04-06T09:40:12.360Z,98744.25
2023-04-06T09:42:42.553Z,98749.75
2023-04-06T09:45:12.775Z,98743.06
2023-04-06T09:47:42.596Z,98745.97
2023-04-06T09:50:12.919Z,98739.91
2023-04-06T09:52:43.055Z,98736.16
2023-04-06T09:55:11.805Z,98739.84
2023-04-06T09:57:43.941Z,98742.09
2023-04-06T10:00:18.879Z,98746.25
2023-04-06T10:02:51.170Z,98747.19
2023-04-06T10:05:21.926Z,98747.41
2023-04-06T10:08:00.239Z,98739.53
2023-04-06T10:10:30.103Z,98741.19
2023-04-06T10:12:58.693Z,98728.44
2023-04-06T10:15:29.645Z,98737.50
2023-04-06T10:17:58.234Z,98724.03
2023-04-06T10:20:29.996Z,98724.03
2023-04-06T10:23:01.241Z,98730.75
2023-04-06T10:25:30.008Z,98723.47
2023-04-06T10:28:01.554Z,98732.28
2023-04-06T10:30:31.582Z,98723.13
2023-04-06T10:32:59.726Z,98728.66
2023-04-06T10:35:38.261Z,98719.25
2023-04-06T10:38:06.868Z,98718.34
2023-04-06T10:40:37.770Z,98716.94
2023-04-06T10:43:09.930Z,98719.13
2023-04-06T10:45:43.949Z,98713.97
2023-04-06T10:48:15.964Z,98716.03
2023-04-06T10:50:44.307Z,98714.00
2023-04-06T10:53:12.501Z,98703.50
2023-04-06T10:55:42.123Z,98708.50
2023-04-06T10:58:10.369Z,98699.66
2023-04-06T11:00:50.737Z,98702.06
2023-04-06T11:03:19.732Z,98703.47
2023-04-06T11:05:51.216Z,98713.31
2023-04-06T11:08:25.691Z,98699.94
2023-04-06T11:10:53.823Z,98696.03
2023-04-06T11:13:22.321Z,98700.84
2023-04-06T11:15:51.781Z,98689.66
2023-04-06T11:18:20.551Z,98695.34
2023-04-06T11:20:51.481Z,98692.63
2023-04-06T11:23:26.557Z,98681.44
2023-04-06T11:25:55.029Z,98680.22
2023-04-06T11:28:23.266Z,98683.00
2023-04-06T11:30:52.922Z,98678.16
2023-04-06T11:33:24.304Z,98673.38
2023-04-06T11:35:52.586Z,98667.47
2023-04-06T11:38:21.800Z,98671.16
2023-04-06T11:40:54.581Z,98671.69
2023-04-06T11:43:27.854Z,98665.41
2023-04-06T11:46:03.294Z,98655.81
2023-04-06T11:48:32.037Z,98657.47
2023-04-06T11:51:05.909Z,98652.84
2023-04-06T11:53:34.489Z,98647.47
2023-04-06T11:56:02.598Z,98641.91
2023-04-06T11:58:31.857Z,98645.25
2023-04-06T12:01:06.640Z,98646.88
2023-04-06T12:03:34.947Z,98645.19
2023-04-06T12:06:03.941Z,98653.03
2023-04-06T12:08:32.062Z,98639.56
2023-04-06T12:11:00.818Z,98644.34
2023-04-06T12:13:29.019Z,98638.06
2023-04-06T12:15:57.274Z,98640.81
2023-04-06T12:18:27.057Z,98641.16
2023-04-06T12:20:55.400Z,98633.13
2023-04-06T12:23:23.675Z,98630.69
2023-04-06T12:25:55.445Z,98638.00
2023-04-06T12:28:27.775Z,98628.25
2023-04-06T12:30:56.564Z,98633.56
2023-04-06T12:33:24.774Z,98628.94
2023-04-06T12:35:54.314Z,98620.94
2023-04-06T12:38:22.544Z,98623.41
2023-04-06T12:40:50.882Z,98617.28
2023-04-06T12:43:18.986Z,98623.03
2023-04-06T12:45:47.100Z,98614.53
2023-04-06T12:48:15.213Z,98612.00
2023-04-06T12:50:43.350Z,98608.66
2023-04-06T12:53:12.823Z,98602.34
2023-04-06T12:55:41.216Z,98610.38
2023-04-06T12:58:09.404Z,98611.34
2023-04-06T13:00:37.924Z,98607.47
2023-04-06T13:03:06.127Z,98607.41
2023-04-06T13:05:34.248Z,98606.00
2023-04-06T13:08:02.398Z,98608.72
2023-04-06T13:10:31.879Z,98604.47
2023-04-06T13:13:01.000Z,98600.34
2023-04-06T13:15:29.155Z,98597.75
2023-04-06T13:17:57.452Z,98592.91
2023-04-06T13:20:26.029Z,98584.94
2023-04-06T13:22:54.156Z,98591.22
2023-04-06T13:25:24.658Z,98589.69
2023-04-06T13:27:54.135Z,98585.75
2023-04-06T13:30:22.628Z,98594.31
2023-04-06T13:32:51.330Z,98589.91
2023-04-06T13:35:19.924Z,98581.28
2023-04-06T13:37:49.084Z,98588.06
2023-04-06T13:40:17.156Z,98581.34
2023-04-06T13:42:46.126Z,98589.47
2023-04-06T13:45:15.675Z,98578.16
2023-04-06T13:47:43.773Z,98576.56
2023-04-06T13:50:12.182Z,98575.06
2023-04-06T13:52:40.404Z,98571.84
2023-04-06T13:55:08.874Z,98573.66
2023-04-06T13:57:37.825Z,98571.66
2023-04-06T14:00:08.286Z,98571.56
2023-04-06T14:02:37.990Z,98571.97
2023-04-06T14:05:06.563Z,98568.38
2023-04-06T14:07:34.615Z,98566.91
2023-04-06T14:10:02.720Z,98564.81
2023-04-06T14:12:32.529Z,98569.72
2023-04-06T14:15:00.601Z,98567.00
2023-04-06T14:17:29.371Z,98563.50
2023-04-06T14:19:58.769Z,98565.72
2023-04-06T14:22:27.084Z,98571.00
2023-04-06T14:24:55.252Z,98568.69
2023-04-06T14:27:23.323Z,98565.03
2023-04-06T14:29:53.869Z,98564.78
2023-04-06T14:32:21.974Z,98567.31
2023-04-06T14:34:50.004Z,98557.72
2023-04-06T14:37:19.604Z,98561.56
2023-04-06T14:39:47.636Z,98560.31
2023-04-06T14:42:17.995Z,98562.81
2023-04-06T14:44:46.481Z,98557.94
2023-04-06T14:47:16.625Z,98557.66
2023-04-06T14:49:44.765Z,98560.88
2023-04-06T14:52:12.908Z,98555.72
2023-04-06T14:54:42.309Z,98557.00
2023-04-06T14:57:10.360Z,98553.78
2023-04-06T14:59:40.146Z,98555.75
2023-04-06T15:02:08.871Z,98554.88
2023-04-06T15:04:39.344Z,98564.09
2023-04-06T15:07:07.467Z,98567.94
2023-04-06T15:09:35.458Z,98555.09
2023-04-06T15:12:05.029Z,98558.63
2023-04-06T15:14:33.105Z,98557.00
2023-04-06T15:17:01.196Z,98549.66
2023-04-06T15:19:29.230Z,98555.91
2023-04-06T15:21:58.502Z,98555.34
2023-04-06T15:24:27.671Z,98554.38
2023-04-06T15:26:55.967Z,98554.16
2023-04-06T15:29:26.204Z,98562.00
2023-04-06T15:31:54.532Z,98556.50
2023-04-06T15:34:22.641Z,98555.63
2023-04-06T15:36:51.703Z,98561.56
2023-04-06T15:39:19.796Z,98549.44
2023-04-06T15:41:50.288Z,98558.59
2023-04-06T15:44:20.045Z,98562.63
2023-04-06T15:46:51.771Z,98564.13
2023-04-06T15:49:20.096Z,98562.09
2023-04-06T15:51:48.567Z,98558.09
2023-04-06T15:54:20.041Z,98564.13
2023-04-06T15:56:48.306Z,98565.69
2023-04-06T15:59:18.649Z,98551.38
2023-04-06T16:01:47.248Z,98550.03
2023-04-06T16:04:18.889Z,98556.06
2023-04-06T16:06:47.039Z,98556.47
2023-04-06T16:09:16.027Z,98553.31
2023-04-06T16:11:47.165Z,98556.78
2023-04-06T16:14:15.385Z,98560.16
2023-04-06T16:16:43.617Z,98562.78
2023-04-06T16:19:11.771Z,98560.06
2023-04-06T16:21:41.168Z,98555.66
2023-04-06T16:24:09.365Z,98562.16
2023-04-06T16:26:39.960Z,98559.00
2023-04-06T16:29:10.363Z,98555.66
2023-04-06T16:31:38.525Z,98565.94
2023-04-06T16:34:07.176Z,98564.19
2023-04-06T16:36:35.647Z,98563.91
2023-04-06T16:39:05.099Z,98570.22
2023-04-06T16:41:33.259Z,98570.41
2023-04-06T16:44:03.630Z,98564.66
2023-04-06T16:46:32.168Z,98569.03
2023-04-06T16:49:00.498Z,98566.00
2023-04-06T16:51:28.654Z,98566.38
2023-04-06T16:53:56.764Z,98563.94
2023-04-06T16:56:26.265Z,98557.88
2023-04-06T16:58:54.366Z,98559.00
2023-04-06T17:01:22.825Z,98565.91
2023-04-06T17:03:51.178Z,98568.59
2023-04-06T17:06:19.641Z,98566.47
2023-04-06T17:08:49.252Z,98570.41
2023-04-06T17:11:21.748Z,98566.28
2023-04-06T17:13:55.041Z,98569.00
2023-04-06T17:16:23.218Z,98569.47
2023-04-06T17:18:51.276Z,98569.59
2023-04-06T17:21:21.750Z,98568.16
2023-04-06T17:23:49.840Z,98569.81
2023-04-06T17:26:19.974Z,98565.47
2023-04-06T17:28:48.050Z,98573.22
2023-04-06T17:31:17.537Z,98570.31
2023-04-06T17:33:45.875Z,98564.63
2023-04-06T17:36:14.065Z,98574.41
2023-04-06T17:38:45.798Z,98573.34
2023-04-06T17:41:14.341Z,98565.25
2023-04-06T17:43:42.450Z,98572.06
2023-04-06T17:46:10.576Z,98573.38
2023-04-06T17:48:40.507Z,98547.31
2023-04-06T17:51:08.504Z,98575.47
2023-04-06T17:53:37.103Z,98576.31
2023-04-06T17:56:05.407Z,98581.00
2023-04-06T17:58:36.083Z,98592.09
2023-04-06T18:01:07.058Z,98580.88
2023-04-06T18:03:35.527Z,98592.31
2023-04-06T18:06:11.462Z,98588.22
2023-04-06T18:08:39.517Z,98595.59
2023-04-06T18:11:07.637Z,98592.75
2023-04-06T18:13:37.194Z,98594.94
2023-04-06T18:16:08.146Z,98599.03
2023-04-06T18:18:37.932Z,98598.56
2023-04-06T18:21:06.499Z,98601.75
2023-04-06T18:23:37.112Z,98563.22
2023-04-06T18:26:05.962Z,98607.84
2023-04-06T18:28:34.325Z,98602.81
2023-04-06T18:31:02.528Z,98616.13
2023-04-06T18:33:32.293Z,98614.09
2023-04-06T18:36:00.400Z,98615.38
2023-04-06T18:38:28.486Z,98620.34
2023-04-06T18:40:58.706Z,98624.03
2023-04-06T18:43:27.565Z,98623.31
2023-04-06T18:45:55.702Z,98617.63
2023-04-06T18:48:23.781Z,98627.84
2023-04-06T18:50:57.468Z,98628.81
2023-04-06T18:53:27.820Z,98619.63
2023-04-06T18:55:57.508Z,98625.84
2023-04-06T18:58:29.532Z,98637.47
2023-04-06T19:00:57.994Z,98638.72
2023-04-06T19:03:26.928Z,98635.94
2023-04-06T19:05:55.327Z,98635.22
2023-04-06T19:08:23.387Z,98643.94
2023-04-06T19:10:51.383Z,98642.63
2023-04-06T19:13:19.458Z,98648.34
2023-04-06T19:15:48.885Z,98646.41
2023-04-06T19:18:17.220Z,98639.31
2023-04-06T19:20:45.593Z,98653.41
2023-04-06T19:23:13.826Z,98655.56
2023-04-06T19:25:43.607Z,98660.22
2023-04-06T19:28:14.801Z,98657.44
2023-04-06T19:30:45.659Z,98654.94
2023-04-06T19:33:16.332Z,98658.94
2023-04-06T19:35:46.746Z,98662.63
2023-04-06T19:38:15.046Z,98657.09
2023-04-06T19:40:43.133Z,98662.16
2023-04-06T19:43:11.169Z,98655.94
2023-04-06T19:45:39.249Z,98655.78
2023-04-06T19:48:07.394Z,98659.72
2023-04-06T19:50:36.914Z,98656.25
2023-04-06T19:53:07.865Z,98661.72
2023-04-06T19:55:36.562Z,98671.91
2023-04-06T19:58:04.561Z,98664.84
2023-04-06T20:00:33.015Z,98667.41
2023-04-06T20:03:01.169Z,98669.69
2023-04-06T20:05:29.424Z,98668.31
2023-04-06T20:07:58.985Z,98664.72
2023-04-06T20:10:27.131Z,98676.09
2023-04-06T20:12:55.245Z,98671.56
2023-04-06T20:15:23.365Z,98671.94
2023-04-06T20:17:51.402Z,98677.06
2023-04-06T20:20:19.613Z,98676.25
2023-04-06T20:22:50.020Z,98670.06
2023-04-06T20:25:19.781Z,98673.03
2023-04-06T20:27:47.876Z,98671.59
2023-04-06T20:30:18.047Z,98669.72
2023-04-06T20:32:46.153Z,98669.91
2023-04-06T20:35:14.322Z,98668.34
2023-04-06T20:37:42.421Z,98672.22
2023-04-06T20:40:11.647Z,98672.59
2023-04-06T20:42:41.735Z,98670.72
2023-04-06T20:45:10.053Z,98670.09
2023-04-06T20:47:38.781Z,98668.25
2023-04-06T20:50:07.411Z,98667.97
2023-04-06T20:52:36.340Z,98671.41
2023-04-06T20:55:04.882Z,98669.13
2023-04-06T20:57:33.043Z,98666.47
2023-04-06T21:00:02.529Z,98667.44
2023-04-06T21:02:30.827Z,98675.63
2023-04-06T21:04:58.891Z,98665.56
2023-04-06T21:07:26.912Z,98668.06
2023-04-06T21:09:55.005Z,98662.38
2023-04-06T21:12:23.039Z,98657.25
2023-04-06T21:14:51.038Z,98663.34
2023-04-06T21:17:20.470Z,98656.97
2023-04-06T21:19:48.565Z,98655.41
2023-04-06T21:22:16.592Z,98657.69
2023-04-06T21:24:44.676Z,98643.72
2023-04-06T21:27:13.075Z,98651.44
2023-04-06T21:29:41.153Z,98650.88
2023-04-06T21:32:09.130Z,98641.84
2023-04-06T21:34:38.569Z,98647.84
2023-04-06T21:37:07.439Z,98642.41
2023-04-06T21:39:37.655Z,98637.69
2023-04-06T21:42:05.887Z,98642.66
2023-04-06T21:44:34.472Z,98640.47
2023-04-06T21:47:02.532Z,98638.59
2023-04-06T21:49:31.262Z,98643.94
2023-04-06T21:52:00.608Z,98631.25
2023-04-06T21:54:32.563Z,98632.06
2023-04-06T21:57:01.609Z,98627.22
2023-04-06T22:02:38.920Z,98633.09
2023-04-06T22:05:07.722Z,98628.31
2023-04-06T22:07:36.051Z,98625.31
2023-04-06T22:10:04.231Z,98629.19
2023-04-06T22:12:32.311Z,98631.31
2023-04-06T22:15:00.775Z,98628.78
2023-04-06T22:17:28.879Z,98622.56
2023-04-06T22:19:58.296Z,98623.44
2023-04-06T22:22:26.428Z,98617.59
2023-04-06T22:24:54.477Z,98614.75
2023-04-06T22:27:22.793Z,98623.34
2023-04-06T22:29:50.924Z,98625.28
2023-04-06T22:32:19.182Z,98628.41
2023-04-06T22:34:47.289Z,98617.66
2023-04-06T22:37:16.662Z,98614.56
2023-04-06T22:39:46.703Z,98606.47
2023-04-06T22:42:14.786Z,98585.34
2023-04-06T22:44:42.842Z,98597.75
2023-04-06T22:47:10.983Z,98574.38
2023-04-06T22:49:39.106Z,98588.84
2023-04-06T22:52:07.199Z,98584.72
2023-04-06T22:54:36.540Z,98591.34
2023-04-06T22:57:04.568Z,98593.41
2023-04-06T22:59:32.582Z,98585.97
2023-04-06T23:02:00.948Z,98580.31
2023-04-06T23:04:29.217Z,98578.09
2023-04-06T23:06:57.242Z,98575.00
2023-04-06T23:09:25.572Z,98562.97
2023-04-06T23:11:54.947Z,98570.44
2023-04-06T23:14:22.900Z,98562.56
2023-04-06T23:16:51.217Z,98564.56
2023-04-06T23:19:19.281Z,98551.63
2023-04-06T23:21:49.770Z,98554.47
2023-04-06T23:24:17.936Z,98553.66
2023-04-06T23:26:46.280Z,98552.41
2023-04-06T23:29:15.548Z,98551.16
2023-04-06T23:31:43.539Z,98546.34
2023-04-06T23:34:11.590Z,98550.31
2023-04-06T23:36:39.701Z,98549.66
2023-04-06T23:39:07.702Z,98546.41
2023-04-06T23:41:35.677Z,98534.00
2023-04-06T23:44:03.681Z,98542.06
2023-04-06T23:46:35.420Z,98543.13
2023-04-06T23:49:03.507Z,98539.22
2023-04-06T23:51:31.745Z,98526.78
2023-04-06T23:53:59.976Z,98532.34
2023-04-06T23:56:28.050Z,98525.13
2023-04-06T23:58:56.412Z,98524.47
